Pleasanthill, Nebraska
Current Conditions -  °F | °C
As of 7:54 PM on Friday 19 Dec 2014 (Local Time) from KLNK Reporting Station
Overcast Overcast  
Wind Chill: 27°   Ceiling: 1300
Heat Index: 34°   Visibility: 7mi
Dew Point: 30°   Wind: 8mph
Humidity: 85%   Direction: 190°S
Pressure: 30.15"   Gusts: NA
Location:  40.6539°N, 97.0844°W
Report Text: KLNK 200154Z 19007KT 7SM OVC013 01/M01 A3015 RMK AO2 SLP219 T00111011
Loading
Personal Weather Stations






























Interactive Weather Map New forecast layout! Learn more

10-Day Weather Forecast

Advertisements
Track Severe Weather on mobile